Valley Station, Kentucky
Current Conditions -  °F | °C
As of 11:56 PM on Thursday 30 Oct 2014 (Local Time) from KSDF Reporting Station
Overcast Overcast  
Wind Chill: 50°   Ceiling: 7000
Heat Index: 50°   Visibility: 10mi
Dew Point: 38°   Wind: 8mph
Humidity: 63%   Direction: 130°SE
Pressure: 30.04"   Gusts: NA
Location:  38.0866°N, 85.8492°W
Report Text: KSDF 310356Z 13007KT 10SM BKN070 OVC100 10/03 A3004 RMK AO2 SLP174 T01000033
Loading
Personal Weather Stations






























Interactive Weather Map
Tropical Storm Tracking
New forecast layout! Learn more

10-Day Weather Forecast

Advertisements
Track Severe Weather on mobile